Time;durP1;ratioP1;P1;durP2;ratioP2;P2;SDS_P1;SDS_P2;PMS_P1;PMS_P2;Temp;Humidity;BMP_temperature;BMP_pressure;BME280_temperature;BME280_humidity;BME280_pressure;Samples;Min_cycle;Max_cycle;Signal;HPM_P1;HPM_P2
2023/09/11 00:00:03;;;;;;;398.88;342.70;;;;;;;20.04;67.25;99938.81;347047;28;1239;-75
2023/09/11 00:00:14;;;;;;;398.52;341.40;;;;;;;20.05;67.03;99937.84;346086;28;947;-75
2023/09/11 00:00:25;;;;;;;401.92;342.58;;;;;;;20.03;67.01;99937.97;347382;28;1292;-75
2023/09/11 00:00:35;;;;;;;405.30;348.63;;;;;;;20.00;67.12;99938.19;347436;28;867;-75
2023/09/11 00:00:46;;;;;;;405.88;350.38;;;;;;;20.00;67.02;99942.66;348153;28;1526;-74
2023/09/11 00:00:56;;;;;;;402.30;347.57;;;;;;;19.99;66.93;99936.50;345980;28;887;-74
2023/09/11 00:01:06;;;;;;;399.10;341.33;;;;;;;19.98;67.02;99940.13;347328;28;1191;-74
2023/09/11 00:01:18;;;;;;;400.27;344.57;;;;;;;19.99;67.05;99941.81;347832;28;1244;-74
2023/09/11 00:01:28;;;;;;;401.08;344.00;;;;;;;20.01;66.87;99944.34;348814;28;1172;-74
2023/09/11 00:01:38;;;;;;;400.45;341.38;;;;;;;20.02;66.76;99944.25;350002;28;1244;-74
2023/09/11 00:01:49;;;;;;;399.57;341.27;;;;;;;20.01;66.66;99939.88;350079;28;987;-74
2023/09/11 00:01:59;;;;;;;398.57;343.70;;;;;;;20.03;66.84;99945.94;350068;28;1185;-74
2023/09/11 00:02:09;;;;;;;399.45;347.40;;;;;;;20.03;66.39;99948.59;347403;28;860;-74
2023/09/11 00:02:20;;;;;;;399.23;346.93;;;;;;;20.03;66.87;99945.94;348033;28;1055;-74
2023/09/11 00:02:30;;;;;;;400.23;345.27;;;;;;;20.04;66.76;99944.13;345081;28;985;-74
2023/09/11 00:02:41;;;;;;;399.87;339.27;;;;;;;20.03;66.60;99943.28;347468;28;1234;-74
2023/09/11 00:02:51;;;;;;;398.90;334.25;;;;;;;20.03;66.43;99943.28;343392;28;813;-74
2023/09/11 00:03:02;;;;;;;399.00;334.50;;;;;;;20.04;66.66;99938.81;343226;28;1205;-74
2023/09/11 00:03:12;;;;;;;402.20;345.02;;;;;;;20.03;66.91;99943.28;344602;28;1324;-74
2023/09/11 00:03:23;;;;;;;403.20;347.97;;;;;;;20.03;66.67;99940.63;349682;28;1478;-74
2023/09/11 00:03:33;;;;;;;401.92;342.83;;;;;;;20.04;66.40;99944.97;345860;28;1251;-74
2023/09/11 00:03:44;;;;;;;400.30;336.67;;;;;;;20.04;66.67;99944.97;345954;28;1189;-74
2023/09/11 00:03:54;;;;;;;401.10;337.98;;;;;;;20.04;66.71;99942.31;346116;28;2707;-75
2023/09/11 00:04:06;;;;;;;401.03;342.23;;;;;;;20.05;66.63;99946.69;342914;28;3160;-75
2023/09/11 00:04:17;;;;;;;399.75;336.58;;;;;;;20.05;66.34;99941.34;344428;28;5251;-75
2023/09/11 00:04:27;;;;;;;400.87;332.20;;;;;;;20.05;66.54;99952.00;341843;28;5504;-75
2023/09/11 00:04:38;;;;;;;402.75;339.40;;;;;;;20.02;66.37;99946.06;340271;29;3327;-75
2023/09/11 00:04:48;;;;;;;404.30;343.67;;;;;;;20.02;66.43;99946.91;342326;28;1313;-75
2023/09/11 00:04:59;;;;;;;403.20;347.48;;;;;;;20.03;66.71;99943.28;341880;28;1299;-75
2023/09/11 00:05:09;;;;;;;402.73;345.97;;;;;;;20.03;66.66;99940.63;341958;28;1331;-75
2023/09/11 00:05:19;;;;;;;401.03;342.30;;;;;;;20.03;66.63;99947.75;340680;28;920;-75
2023/09/11 00:05:30;;;;;;;403.13;343.73;;;;;;;20.03;66.64;99948.59;338089;29;1444;-75
2023/09/11 00:05:40;;;;;;;401.83;341.40;;;;;;;20.03;66.68;99942.44;343269;28;1202;-75
2023/09/11 00:05:51;;;;;;;401.30;343.52;;;;;;;20.03;66.61;99937.97;339694;28;1860;-75
2023/09/11 00:06:04;;;;;;;398.77;339.20;;;;;;;20.02;66.56;99940.75;338123;29;1483;-75
2023/09/11 00:06:14;;;;;;;399.48;340.15;;;;;;;20.02;66.83;99938.09;336619;29;1452;-75
2023/09/11 00:06:25;;;;;;;399.43;338.07;;;;;;;20.02;66.51;99940.75;343242;28;1308;-75
2023/09/11 00:06:35;;;;;;;399.27;336.77;;;;;;;20.00;66.44;99938.19;344241;28;1594;-75
2023/09/11 00:06:46;;;;;;;401.17;341.50;;;;;;;20.01;66.10;99945.22;347198;28;1974;-75
2023/09/11 00:06:56;;;;;;;403.52;349.92;;;;;;;20.01;66.42;99945.22;341927;28;1394;-75
2023/09/11 00:07:07;;;;;;;405.90;356.80;;;;;;;20.00;66.46;99943.50;343276;28;1017;-75
2023/09/11 00:07:17;;;;;;;404.33;348.20;;;;;;;20.02;66.31;99940.75;341888;28;1210;-74
2023/09/11 00:07:27;;;;;;;402.27;337.25;;;;;;;20.00;66.58;99940.84;343203;28;1717;-74
2023/09/11 00:07:38;;;;;;;400.67;333.57;;;;;;;19.97;66.59;99943.72;339736;28;1464;-75
2023/09/11 00:07:48;;;;;;;400.67;339.67;;;;;;;19.96;66.69;99944.69;338715;28;1700;-75
2023/09/11 00:07:59;;;;;;;400.67;344.53;;;;;;;19.97;66.68;99941.06;339350;29;859;-75
2023/09/11 00:08:09;;;;;;;400.50;344.95;;;;;;;19.96;66.61;99942.03;337877;29;2123;-75
2023/09/11 00:08:20;;;;;;;400.27;343.97;;;;;;;19.97;66.29;99938.41;335112;29;1941;-75
2023/09/11 00:08:30;;;;;;;400.17;339.95;;;;;;;19.97;66.40;99946.38;336470;29;2162;-75
2023/09/11 00:08:41;;;;;;;401.07;342.37;;;;;;;19.97;66.49;99946.38;335548;29;1109;-75
2023/09/11 00:08:52;;;;;;;405.98;348.50;;;;;;;19.98;66.53;99945.44;334301;29;2656;-76
2023/09/11 00:09:03;;;;;;;404.58;347.75;;;;;;;19.98;66.31;99940.13;335978;29;1740;-77
2023/09/11 00:09:14;;;;;;;404.65;344.00;;;;;;;19.98;66.51;99940.13;336831;29;1143;-77
2023/09/11 00:09:24;;;;;;;404.00;342.48;;;;;;;19.99;66.38;99939.16;336812;29;884;-77
2023/09/11 00:09:34;;;;;;;405.40;347.87;;;;;;;19.99;66.70;99944.47;335348;29;1076;-77
2023/09/11 00:09:45;;;;;;;404.88;348.50;;;;;;;19.99;66.53;99933.84;333731;29;1819;-77
2023/09/11 00:09:55;;;;;;;403.70;348.13;;;;;;;20.00;66.34;99938.19;331568;29;1165;-77
2023/09/11 00:10:06;;;;;;;406.25;349.08;;;;;;;20.01;66.45;99939.03;332844;29;2157;-77
2023/09/11 00:10:16;;;;;;;405.17;344.87;;;;;;;20.01;66.71;99934.56;330727;29;2206;-77
2023/09/11 00:10:27;;;;;;;405.50;345.55;;;;;;;20.01;66.53;99934.56;328048;30;938;-77
2023/09/11 00:10:37;;;;;;;406.33;345.87;;;;;;;20.02;66.42;99938.94;328760;29;2315;-76
2023/09/11 00:10:48;;;;;;;408.90;348.48;;;;;;;20.01;66.35;99934.56;329733;29;2859;-76
2023/09/11 00:10:58;;;;;;;405.57;344.40;;;;;;;20.01;66.42;99937.22;330948;29;1457;-76
2023/09/11 00:11:08;;;;;;;401.35;342.20;;;;;;;19.99;66.42;99936.50;331142;29;2711;-76
2023/09/11 00:11:19;;;;;;;399.80;337.60;;;;;;;19.97;66.41;99935.75;330684;29;1773;-76
2023/09/11 00:11:29;;;;;;;401.57;339.33;;;;;;;19.98;66.34;99940.13;330151;29;1442;-76
2023/09/11 00:11:40;;;;;;;402.67;342.60;;;;;;;19.97;66.40;99938.41;330522;29;975;-76
2023/09/11 00:11:50;;;;;;;402.87;343.63;;;;;;;19.98;66.57;99936.63;328670;29;1853;-76
2023/09/11 00:12:00;;;;;;;402.58;335.55;;;;;;;19.97;66.46;99933.09;327757;29;2722;-77
2023/09/11 00:12:11;;;;;;;402.50;333.80;;;;;;;19.96;66.58;99941.19;327928;30;1465;-77
2023/09/11 00:12:22;;;;;;;400.20;332.02;;;;;;;19.94;66.52;99942.16;324318;30;3120;-76
2023/09/11 00:12:32;;;;;;;399.97;335.10;;;;;;;19.92;66.90;99936.13;325118;29;3075;-76
2023/09/11 00:12:42;;;;;;;401.05;333.08;;;;;;;19.93;66.56;99936.94;330190;29;1959;-76
2023/09/11 00:12:53;;;;;;;401.43;334.57;;;;;;;19.92;67.01;99935.28;324307;30;3362;-76
2023/09/11 00:13:03;;;;;;;401.80;336.10;;;;;;;19.92;66.60;99936.13;320560;30;3407;-76
2023/09/11 00:13:14;;;;;;;403.03;337.57;;;;;;;19.91;66.99;99938.91;316810;31;3616;-76
2023/09/11 00:13:25;;;;;;;406.35;336.75;;;;;;;19.90;67.23;99942.53;317816;30;3280;-76
2023/09/11 00:13:35;;;;;;;411.17;339.90;;;;;;;19.89;66.94;99940.81;319780;30;3105;-76
2023/09/11 00:13:46;;;;;;;414.33;341.83;;;;;;;19.90;66.65;99945.19;317943;30;2089;-76
2023/09/11 00:13:56;;;;;;;413.60;345.73;;;;;;;19.89;66.96;99940.81;316165;31;1176;-76
2023/09/11 00:14:07;;;;;;;411.77;342.33;;;;;;;19.90;67.00;99939.88;316379;31;2442;-76
2023/09/11 00:14:17;;;;;;;410.27;339.13;;;;;;;19.90;66.89;99937.22;314598;31;3457;-76
2023/09/11 00:14:27;;;;;;;414.40;333.43;;;;;;;19.89;67.17;99943.47;313845;31;1357;-76
2023/09/11 00:14:38;;;;;;;414.73;331.85;;;;;;;19.89;66.90;99940.81;312088;31;5004;-76
2023/09/11 00:14:48;;;;;;;419.70;341.27;;;;;;;19.89;67.30;99940.81;310053;31;4111;-76
2023/09/11 00:14:58;;;;;;;424.10;351.07;;;;;;;19.87;67.00;99943.59;310592;31;1567;-76
2023/09/11 00:15:09;;;;;;;425.55;357.00;;;;;;;19.86;67.20;99936.59;308848;31;4690;-76
2023/09/11 00:15:19;;;;;;;419.60;348.30;;;;;;;19.85;67.00;99936.69;309189;31;4432;-76
2023/09/11 00:15:32;;;;;;;421.58;343.80;;;;;;;19.83;66.92;99935.97;310871;31;4203;-76
2023/09/11 00:15:42;;;;;;;425.92;343.95;;;;;;;19.82;67.33;99934.28;311716;31;949;-76
2023/09/11 00:15:53;;;;;;;432.20;341.17;;;;;;;19.81;67.59;99933.41;309440;31;3101;-76
2023/09/11 00:16:03;;;;;;;432.43;343.77;;;;;;;19.82;67.29;99939.59;306993;31;3094;-77
2023/09/11 00:16:14;;;;;;;446.25;341.80;;;;;;;19.83;67.33;99942.13;305218;32;1377;-77
2023/09/11 00:16:24;;;;;;;442.27;338.30;;;;;;;19.84;67.27;99942.97;306305;32;3945;-77
2023/09/11 00:16:35;;;;;;;455.00;335.88;;;;;;;19.83;67.12;99941.28;301409;32;5586;-76
2023/09/11 00:16:45;;;;;;;455.52;344.55;;;;;;;19.84;67.04;99938.50;299354;32;6986;-76
2023/09/11 00:16:56;;;;;;;455.13;349.43;;;;;;;19.84;67.02;99943.81;300841;32;1337;-76
2023/09/11 00:17:06;;;;;;;455.70;351.80;;;;;;;19.86;67.11;99938.41;300962;32;5950;-76
2023/09/11 00:17:16;;;;;;;451.63;349.73;;;;;;;19.85;67.20;99937.56;297362;33;6281;-76
2023/09/11 00:17:27;;;;;;;454.73;352.00;;;;;;;19.84;67.17;99937.66;293902;33;1301;-77
2023/09/11 00:17:37;;;;;;;450.25;354.10;;;;;;;19.83;67.31;99942.13;297548;32;5996;-77
2023/09/11 00:17:48;;;;;;;447.60;350.37;;;;;;;19.83;67.24;99935.97;296690;32;5863;-76
2023/09/11 00:17:59;;;;;;;443.30;342.87;;;;;;;19.82;67.46;99942.25;296930;33;866;-76
2023/09/11 00:18:09;;;;;;;435.80;339.65;;;;;;;19.81;67.38;99937.88;294668;33;4537;-76
2023/09/11 00:18:19;;;;;;;435.73;344.15;;;;;;;19.80;67.19;99937.03;294105;33;4905;-76
2023/09/11 00:18:30;;;;;;;433.40;341.07;;;;;;;19.80;67.37;99937.03;290711;33;6014;-76
2023/09/11 00:18:40;;;;;;;437.08;340.15;;;;;;;19.81;67.29;99938.72;286543;34;1275;-76
2023/09/11 00:18:50;;;;;;;435.20;340.17;;;;;;;19.78;67.33;99933.66;283335;34;8054;-76
2023/09/11 00:19:01;;;;;;;434.67;340.38;;;;;;;19.80;67.40;99933.53;283614;34;9676;-76
2023/09/11 00:19:12;;;;;;;438.60;342.60;;;;;;;19.78;67.76;99931.00;287298;34;881;-76
2023/09/11 00:19:22;;;;;;;434.95;341.65;;;;;;;19.80;67.51;99936.19;285025;34;8593;-76
2023/09/11 00:19:33;;;;;;;432.35;344.25;;;;;;;19.80;67.34;99937.03;280445;34;9281;-76
2023/09/11 00:19:43;;;;;;;432.23;347.73;;;;;;;19.81;67.57;99937.88;280812;35;862;-76
2023/09/11 00:21:36;;;;;;;400.22;312.01;;;;;;;19.76;67.47;99934.72;2497104;27;20262;-75
2023/09/11 00:21:47;;;;;;;413.00;340.73;;;;;;;19.75;68.04;99930.38;351385;28;1279;-75
2023/09/11 00:21:58;;;;;;;414.33;342.98;;;;;;;19.77;68.09;99939.06;348547;28;1290;-75
2023/09/11 00:22:08;;;;;;;408.50;333.67;;;;;;;19.77;67.84;99936.41;347482;28;802;-75
2023/09/11 00:22:18;;;;;;;410.27;333.67;;;;;;;19.77;67.99;99936.41;347475;28;1444;-75
2023/09/11 00:22:29;;;;;;;409.67;333.27;;;;;;;19.77;67.96;99931.94;346072;28;4036;-75
2023/09/11 00:22:39;;;;;;;409.73;336.88;;;;;;;19.79;68.08;99934.50;347097;28;4775;-75
2023/09/11 00:22:50;;;;;;;403.63;334.13;;;;;;;19.79;67.83;99934.50;348508;28;3033;-75
2023/09/11 00:23:00;;;;;;;405.40;336.02;;;;;;;19.78;68.04;99928.34;347013;28;2841;-75
2023/09/11 00:23:11;;;;;;;410.80;334.53;;;;;;;19.77;68.21;99933.75;348550;28;3393;-75
2023/09/11 00:23:21;;;;;;;410.15;336.00;;;;;;;19.77;68.22;99931.09;349573;28;1375;-75
2023/09/11 00:23:31;;;;;;;406.43;336.27;;;;;;;19.76;68.17;99929.41;348570;28;1454;-75
2023/09/11 00:23:42;;;;;;;399.17;334.93;;;;;;;19.77;68.17;99925.78;348630;28;1290;-75
2023/09/11 00:23:52;;;;;;;400.40;337.13;;;;;;;19.77;68.61;99931.09;347461;28;1248;-75
2023/09/11 00:24:03;;;;;;;399.60;332.57;;;;;;;19.77;68.44;99928.44;345853;28;1290;-75
2023/09/11 00:24:14;;;;;;;400.10;332.00;;;;;;;19.77;68.51;99936.41;348727;28;837;-75
2023/09/11 00:24:24;;;;;;;397.77;325.10;;;;;;;19.76;68.46;99932.06;348755;28;1211;-75
2023/09/11 00:24:35;;;;;;;398.83;326.87;;;;;;;19.76;68.58;99938.22;347989;28;1903;-75
2023/09/11 00:24:45;;;;;;;397.25;325.00;;;;;;;19.74;68.58;99932.19;350226;28;1254;-75
2023/09/11 00:24:55;;;;;;;399.17;329.57;;;;;;;19.75;68.79;99933.03;350097;28;867;-75
2023/09/11 00:25:07;;;;;;;400.48;331.25;;;;;;;19.73;69.04;99929.63;347486;28;885;-75
2023/09/11 00:25:17;;;;;;;398.70;330.80;;;;;;;19.74;69.30;99931.31;347196;28;1426;-75
2023/09/11 00:25:28;;;;;;;398.40;330.25;;;;;;;19.72;68.98;99928.78;345713;28;1140;-75
2023/09/11 00:25:39;;;;;;;396.63;327.70;;;;;;;19.72;69.17;99933.25;346044;28;1402;-75
2023/09/11 00:25:49;;;;;;;399.40;332.10;;;;;;;19.72;69.24;99933.25;348588;28;808;-75
2023/09/11 00:25:59;;;;;;;399.67;335.00;;;;;;;19.73;69.04;99929.63;348697;28;1136;-75
2023/09/11 00:26:10;;;;;;;402.80;336.97;;;;;;;19.72;69.62;99927.94;346070;28;1167;-75
2023/09/11 00:26:20;;;;;;;401.80;335.23;;;;;;;19.72;69.18;99928.78;348673;28;1094;-75
2023/09/11 00:26:31;;;;;;;404.83;340.90;;;;;;;19.74;69.14;99939.28;345890;28;1211;-75
2023/09/11 00:26:41;;;;;;;403.40;341.27;;;;;;;19.71;69.31;99932.41;344681;28;1343;-75
2023/09/11 00:26:52;;;;;;;403.00;343.75;;;;;;;19.72;69.53;99933.25;346174;28;923;-75
2023/09/11 00:27:02;;;;;;;401.73;342.03;;;;;;;19.71;69.85;99931.56;346056;28;913;-75
2023/09/11 00:27:13;;;;;;;402.83;341.75;;;;;;;19.68;69.81;99937.09;347898;28;1080;-75
2023/09/11 00:27:23;;;;;;;402.13;336.37;;;;;;;19.66;70.10;99933.69;343704;28;1979;-75
2023/09/11 00:27:33;;;;;;;399.70;332.92;;;;;;;19.66;70.03;99928.38;345880;28;1231;-75
2023/09/11 00:27:44;;;;;;;399.87;335.53;;;;;;;19.65;70.17;99937.31;345371;28;1301;-75
2023/09/11 00:27:55;;;;;;;399.10;333.38;;;;;;;19.64;70.28;99936.47;343234;28;1294;-75
2023/09/11 00:28:05;;;;;;;398.40;329.98;;;;;;;19.63;70.23;99933.91;342926;28;1543;-75
2023/09/11 00:28:16;;;;;;;399.53;327.13;;;;;;;19.63;70.66;99933.91;341937;28;1308;-76
2023/09/11 00:28:26;;;;;;;402.08;330.30;;;;;;;19.62;70.61;99932.22;341999;28;1369;-76
2023/09/11 00:28:36;;;;;;;404.80;332.53;;;;;;;19.62;70.46;99926.91;343247;28;1193;-76
2023/09/11 00:28:47;;;;;;;411.87;329.07;;;;;;;19.60;70.61;99933.19;340562;29;1214;-76
2023/09/11 00:28:57;;;;;;;417.73;332.20;;;;;;;19.60;70.67;99935.00;340224;29;1254;-76
2023/09/11 00:29:08;;;;;;;422.43;329.40;;;;;;;19.60;71.17;99929.69;340696;28;1689;-75
2023/09/11 00:29:18;;;;;;;419.77;329.85;;;;;;;19.62;70.88;99932.22;339855;29;1349;-75
2023/09/11 00:29:28;;;;;;;414.90;324.03;;;;;;;19.62;71.06;99932.22;340824;28;1472;-75
2023/09/11 00:29:39;;;;;;;412.85;326.40;;;;;;;19.62;71.06;99938.38;340607;29;1928;-75
2023/09/11 00:29:51;;;;;;;416.53;324.60;;;;;;;19.60;71.13;99935.84;337904;29;1419;-75
2023/09/11 00:30:02;;;;;;;417.10;322.86;;;;;;;19.62;70.93;99937.53;340276;28;1310;-75
2023/09/11 00:30:13;;;;;;;417.98;320.85;;;;;;;19.60;70.88;99941.16;339883;28;1641;-75
2023/09/11 00:30:23;;;;;;;410.87;323.63;;;;;;;19.56;70.71;99942.31;338050;29;1194;-75
2023/09/11 00:30:36;;;;;;;407.50;321.88;;;;;;;19.54;71.16;99933.63;340291;29;1910;-75
2023/09/11 00:30:46;;;;;;;404.20;329.90;;;;;;;19.53;70.88;99939.03;339291;29;1745;-75
2023/09/11 00:30:59;;;;;;;405.43;333.83;;;;;;;19.54;70.83;99933.63;337946;29;1341;-75
2023/09/11 00:31:10;;;;;;;407.95;336.55;;;;;;;19.53;70.77;99931.94;341958;28;869;-75
2023/09/11 00:31:20;;;;;;;407.70;335.67;;;;;;;19.53;70.70;99939.03;340463;29;1609;-75
2023/09/11 00:31:31;;;;;;;405.33;330.55;;;;;;;19.50;70.94;99934.78;337191;29;1471;-75
2023/09/11 00:31:41;;;;;;;406.53;331.87;;;;;;;19.50;70.48;99942.72;335885;29;3048;-75
2023/09/11 00:31:51;;;;;;;406.52;332.13;;;;;;;19.45;70.67;99931.63;333262;29;4274;-75
2023/09/11 00:32:02;;;;;;;410.87;336.83;;;;;;;19.43;70.88;99933.53;338748;28;5095;-75
2023/09/11 00:32:12;;;;;;;408.30;334.67;;;;;;;19.41;70.61;99930.16;339121;28;5066;-75
2023/09/11 00:32:23;;;;;;;405.73;330.67;;;;;;;19.42;70.53;99931.84;336528;29;5433;-75
2023/09/11 00:32:33;;;;;;;401.13;325.63;;;;;;;19.43;70.87;99932.69;336425;29;2253;-75
2023/09/11 00:32:43;;;;;;;397.73;321.13;;;;;;;19.43;70.66;99935.34;334487;29;1761;-75
2023/09/11 00:32:54;;;;;;;401.33;329.13;;;;;;;19.42;70.55;99939.81;332731;29;1246;-75
2023/09/11 00:33:04;;;;;;;401.13;329.33;;;;;;;19.43;70.49;99938.84;333918;29;1846;-75
2023/09/11 00:33:16;;;;;;;400.67;328.37;;;;;;;19.44;70.56;99935.25;334720;29;1198;-75
2023/09/11 00:33:26;;;;;;;402.05;322.10;;;;;;;19.44;70.60;99935.25;331503;29;1823;-75
2023/09/11 00:33:36;;;;;;;406.13;332.47;;;;;;;19.44;70.57;99934.41;329240;30;870;-75
2023/09/11 00:33:47;;;;;;;406.27;333.93;;;;;;;19.44;70.25;99940.56;334145;29;1960;-75
2023/09/11 00:33:57;;;;;;;404.23;338.67;;;;;;;19.45;70.27;99936.09;330401;29;2236;-75
2023/09/11 00:34:08;;;;;;;402.13;332.77;;;;;;;19.43;70.30;99936.19;324038;30;1830;-75
2023/09/11 00:34:18;;;;;;;402.42;331.48;;;;;;;19.43;70.24;99941.50;325642;30;2393;-75
2023/09/11 00:34:31;;;;;;;401.73;322.27;;;;;;;19.44;70.13;99939.72;326062;29;2621;-75
2023/09/11 00:34:41;;;;;;;401.00;321.58;;;;;;;19.44;70.38;99937.91;324061;30;2852;-75
2023/09/11 00:34:52;;;;;;;400.45;323.33;;;;;;;19.41;70.07;99934.63;319944;30;1499;-75
2023/09/11 00:35:03;;;;;;;398.63;323.17;;;;;;;19.43;70.40;99938.84;323638;30;1791;-75
2023/09/11 00:35:13;;;;;;;400.15;330.02;;;;;;;19.44;69.96;99940.56;324302;30;1359;-75
2023/09/11 00:35:24;;;;;;;396.85;322.27;;;;;;;19.43;70.00;99935.34;323137;30;1321;-75
2023/09/11 00:35:34;;;;;;;397.93;324.20;;;;;;;19.44;69.88;99943.22;324880;30;2035;-75
2023/09/11 00:35:45;;;;;;;396.65;321.67;;;;;;;19.44;70.09;99939.72;323102;30;2711;-75
2023/09/11 00:35:55;;;;;;;400.17;328.97;;;;;;;19.44;69.41;99943.22;320640;30;1353;-75
2023/09/11 00:36:06;;;;;;;398.15;321.85;;;;;;;19.45;69.82;99941.41;316156;31;1349;-75
2023/09/11 00:36:16;;;;;;;397.83;319.13;;;;;;;19.45;70.10;99941.41;318363;30;3148;-75
2023/09/11 00:36:26;;;;;;;396.50;318.75;;;;;;;19.44;69.72;99939.72;315911;30;3144;-75
2023/09/11 00:36:37;;;;;;;397.00;323.20;;;;;;;19.43;69.84;99933.53;315137;31;1372;-75
2023/09/11 00:36:47;;;;;;;401.00;332.90;;;;;;;19.44;69.71;99935.25;314487;31;3527;-75
2023/09/11 00:36:58;;;;;;;401.03;327.80;;;;;;;19.44;69.70;99940.56;315204;31;3359;-75
2023/09/11 00:37:08;;;;;;;399.57;323.93;;;;;;;19.44;69.74;99934.41;313981;31;1433;-75
2023/09/11 00:37:18;;;;;;;396.52;316.10;;;;;;;19.43;69.43;99943.31;318292;30;2370;-75
2023/09/11 00:37:29;;;;;;;395.60;320.67;;;;;;;19.41;69.58;99940.78;317321;31;2245;-75
2023/09/11 00:37:39;;;;;;;396.77;322.65;;;;;;;19.40;69.75;99936.41;316211;31;764;-75
2023/09/11 00:37:49;;;;;;;399.20;330.07;;;;;;;19.41;69.48;99946.09;310130;31;2772;-75
2023/09/11 00:38:00;;;;;;;397.33;324.73;;;;;;;19.41;69.71;99945.22;311815;31;3785;-75
2023/09/11 00:38:11;;;;;;;396.17;322.67;;;;;;;19.42;69.62;99936.31;313784;31;1591;-75
2023/09/11 00:38:21;;;;;;;394.13;317.17;;;;;;;19.42;69.58;99942.47;310613;31;832;-75
2023/09/11 00:38:31;;;;;;;397.23;324.37;;;;;;;19.42;69.54;99947.78;311849;31;5338;-75
2023/09/11 00:38:42;;;;;;;397.93;323.67;;;;;;;19.42;69.58;99942.47;308988;31;4483;-75
2023/09/11 00:38:52;;;;;;;397.88;322.75;;;;;;;19.40;69.48;99947.03;309506;31;831;-75
2023/09/11 00:39:03;;;;;;;397.20;316.97;;;;;;;19.40;69.72;99941.72;308664;31;4402;-75
2023/09/11 00:39:13;;;;;;;395.55;312.70;;;;;;;19.39;69.67;99948.00;307623;31;4572;-75
2023/09/11 00:39:24;;;;;;;401.33;316.20;;;;;;;19.41;69.47;99942.59;307240;32;1689;-75
2023/09/11 00:39:34;;;;;;;404.30;314.02;;;;;;;19.39;69.63;99942.69;305350;32;3403;-75
2023/09/11 00:39:44;;;;;;;409.30;315.17;;;;;;;19.40;69.82;99941.72;303694;32;3147;-75
2023/09/11 00:39:55;;;;;;;409.75;310.48;;;;;;;19.41;69.67;99938.13;302516;32;1335;-75
2023/09/11 00:40:06;;;;;;;407.73;307.67;;;;;;;19.41;69.77;99940.78;302170;32;4224;-75
2023/09/11 00:40:16;;;;;;;406.88;306.05;;;;;;;19.43;69.43;99944.16;304073;32;5973;-75
2023/09/11 00:40:27;;;;;;;405.23;309.38;;;;;;;19.43;69.70;99943.31;302956;32;7194;-76
2023/09/11 00:40:37;;;;;;;406.00;313.60;;;;;;;19.42;69.77;99942.47;301996;32;1284;-76
2023/09/11 00:40:48;;;;;;;406.42;318.55;;;;;;;19.43;69.46;99944.16;296624;32;6092;-76
2023/09/11 00:40:58;;;;;;;408.73;320.60;;;;;;;19.44;69.60;99951.16;294127;32;6088;-76
2023/09/11 00:41:08;;;;;;;406.70;320.20;;;;;;;19.44;69.46;99945.88;295974;33;3241;-75
2023/09/11 00:41:19;;;;;;;406.67;320.40;;;;;;;19.43;69.11;99940.66;297056;33;5758;-75
2023/09/11 00:41:29;;;;;;;407.17;323.40;;;;;;;19.43;69.39;99949.47;295872;32;6614;-75
2023/09/11 00:41:40;;;;;;;410.77;322.45;;;;;;;19.41;69.34;99938.13;297787;33;2973;-75
2023/09/11 00:41:51;;;;;;;406.55;319.05;;;;;;;19.40;69.62;99944.38;294982;33;902;-75
2023/09/11 00:42:01;;;;;;;400.93;316.37;;;;;;;19.39;69.69;99942.69;292945;33;5613;-75
2023/09/11 00:42:12;;;;;;;405.83;316.20;;;;;;;19.36;69.47;99942.91;291250;33;5906;-75
2023/09/11 00:42:22;;;;;;;411.67;315.77;;;;;;;19.36;69.69;99942.91;293942;33;890;-76
2023/09/11 00:42:32;;;;;;;412.15;313.92;;;;;;;19.37;69.59;99943.75;293228;33;6783;-76
2023/09/11 00:42:43;;;;;;;404.07;320.47;;;;;;;19.35;69.59;99940.38;290504;33;8861;-76
2023/09/11 00:42:53;;;;;;;400.05;318.20;;;;;;;19.36;69.43;99940.25;289154;34;1349;-76
2023/09/11 00:43:04;;;;;;;399.17;316.90;;;;;;;19.36;69.75;99942.06;288524;34;8177;-76
2023/09/11 00:43:14;;;;;;;399.92;315.50;;;;;;;19.36;69.37;99936.75;287410;33;8489;-75
2023/09/11 00:43:24;;;;;;;402.57;316.10;;;;;;;19.36;69.79;99936.75;286405;34;848;-75
2023/09/11 00:43:35;;;;;;;403.30;315.10;;;;;;;19.35;69.80;99941.22;287387;34;7404;-75
2023/09/11 00:43:45;;;;;;;404.13;314.88;;;;;;;19.35;69.76;99946.53;285825;34;9483;-75
2023/09/11 00:43:56;;;;;;;405.17;318.27;;;;;;;19.37;69.77;99934.00;284338;34;5879;-75
2023/09/11 00:44:06;;;;;;;406.33;325.35;;;;;;;19.37;69.78;99939.28;280888;35;872;-75
2023/09/11 00:46:00;;;;;;;395.00;304.13;;;;;;;19.41;69.51;99938.13;2493674;27;20272;-75
2023/09/11 00:46:10;;;;;;;405.37;320.97;;;;;;;19.41;69.56;99938.13;352764;28;1215;-75
2023/09/11 00:46:20;;;;;;;400.88;321.55;;;;;;;19.42;69.63;99937.16;348805;28;1183;-77
2023/09/11 00:46:31;;;;;;;406.37;328.50;;;;;;;19.42;69.15;99937.16;348955;28;744;-76
2023/09/11 00:46:41;;;;;;;412.58;331.38;;;;;;;19.42;69.27;99934.50;348341;28;1851;-76
2023/09/11 00:46:52;;;;;;;410.50;324.60;;;;;;;19.43;69.15;99941.50;348840;28;1314;-76
2023/09/11 00:47:02;;;;;;;406.60;317.57;;;;;;;19.41;69.32;99935.47;346011;28;1396;-75
2023/09/11 00:47:12;;;;;;;399.67;310.10;;;;;;;19.39;69.40;99940.03;348792;28;1349;-75
2023/09/11 00:47:23;;;;;;;398.63;316.03;;;;;;;19.39;69.35;99932.06;348004;28;1314;-75
2023/09/11 00:47:33;;;;;;;397.25;318.27;;;;;;;19.39;69.46;99937.38;348956;28;910;-75
2023/09/11 00:47:44;;;;;;;402.10;325.80;;;;;;;19.38;69.57;99933.03;347903;28;1483;-75
2023/09/11 00:47:54;;;;;;;405.02;324.23;;;;;;;19.38;69.31;99940.16;348185;28;1227;-78
2023/09/11 00:48:05;;;;;;;407.17;324.20;;;;;;;19.34;69.87;99933.34;347353;28;1724;-76
2023/09/11 00:48:15;;;;;;;403.15;319.30;;;;;;;19.34;69.92;99928.91;350196;28;1426;-76
2023/09/11 00:48:26;;;;;;;399.47;318.30;;;;;;;19.35;69.78;99937.72;350237;28;1190;-76
2023/09/11 00:48:36;;;;;;;401.95;322.38;;;;;;;19.35;69.66;99937.72;349263;28;846;-76
2023/09/11 00:48:53;;;;;;;400.90;325.57;;;;;;;19.36;69.70;99942.06;349005;28;1226;-76
2023/09/11 00:49:04;;;;;;;398.22;322.06;;;;;;;19.34;70.10;99936.84;350156;28;1310;-76
2023/09/11 00:49:15;;;;;;;399.90;317.63;;;;;;;19.34;69.77;99934.22;347403;28;1296;-76
2023/09/11 00:49:25;;;;;;;400.35;317.95;;;;;;;19.30;69.75;99929.22;348367;28;1250;-76
2023/09/11 00:49:35;;;;;;;401.80;319.13;;;;;;;19.31;69.80;99937.06;347489;28;1188;-76
2023/09/11 00:49:46;;;;;;;399.83;316.63;;;;;;;19.31;70.02;99939.72;347149;28;1227;-76
2023/09/11 00:49:57;;;;;;;397.87;315.90;;;;;;;19.32;70.00;99938.78;346985;28;1290;-77
2023/09/11 00:50:08;;;;;;;392.83;312.88;;;;;;;19.33;69.63;99934.31;345873;28;947;-76
2023/09/11 00:50:18;;;;;;;392.48;313.17;;;;;;;19.33;69.93;99943.13;347070;28;2811;-76
2023/09/11 00:50:28;;;;;;;392.23;313.23;;;;;;;19.32;69.85;99936.13;344998;28;4832;-76
2023/09/11 00:50:39;;;;;;;396.97;314.77;;;;;;;19.33;69.98;99937.81;346220;28;3014;-75
2023/09/11 00:50:50;;;;;;;401.13;320.30;;;;;;;19.35;69.75;99932.41;347773;28;1237;-75
2023/09/11 00:51:00;;;;;;;401.08;318.40;;;;;;;19.34;69.78;99934.22;343019;28;2132;-75
2023/09/11 00:51:11;;;;;;;397.07;317.10;;;;;;;19.35;69.74;99933.25;344161;28;1430;-75
2023/09/11 00:51:21;;;;;;;394.73;313.40;;;;;;;19.36;69.78;99937.59;344944;28;1307;-75
2023/09/11 00:51:32;;;;;;;395.15;316.70;;;;;;;19.35;69.45;99935.91;345858;28;1419;-75
2023/09/11 00:51:42;;;;;;;403.02;318.70;;;;;;;19.36;69.76;99932.28;345873;28;897;-75
2023/09/11 00:51:53;;;;;;;409.93;319.40;;;;;;;19.36;69.62;99932.28;345797;28;1309;-77
2023/09/11 00:52:04;;;;;;;409.38;319.00;;;;;;;19.38;69.81;99934.84;344608;28;875;-77